createdAt,value
2023-03-05T00:02:35.717Z,3.46
2023-03-05T00:05:37.941Z,3.37
2023-03-05T00:08:40.428Z,3.30
2023-03-05T00:11:42.680Z,3.33
2023-03-05T00:14:44.994Z,3.27
2023-03-05T00:17:47.259Z,3.32
2023-03-05T00:20:50.018Z,3.37
2023-03-05T00:23:54.054Z,3.29
2023-03-05T00:26:56.299Z,3.33
2023-03-05T00:29:58.524Z,3.35
2023-03-05T00:33:01.955Z,3.36
2023-03-05T00:36:06.902Z,3.33
2023-03-05T00:39:09.715Z,3.22
2023-03-05T00:42:18.887Z,3.32
2023-03-05T00:45:21.087Z,3.33
2023-03-05T00:48:29.966Z,3.35
2023-03-05T00:51:32.505Z,3.30
2023-03-05T00:54:34.906Z,3.27
2023-03-05T00:57:37.179Z,3.26
2023-03-05T01:00:39.869Z,3.30
2023-03-05T01:03:42.408Z,3.33
2023-03-05T01:06:46.228Z,3.22
2023-03-05T01:09:49.372Z,3.20
2023-03-05T01:12:51.572Z,3.27
2023-03-05T01:15:53.989Z,3.32
2023-03-05T01:18:56.258Z,3.32
2023-03-05T01:21:59.503Z,3.37
2023-03-05T01:25:01.977Z,3.32
2023-03-05T01:28:04.554Z,3.35
2023-03-05T01:31:09.977Z,3.33
2023-03-05T01:34:12.240Z,3.29
2023-03-05T01:37:14.506Z,3.32
2023-03-05T01:40:19.888Z,3.27
2023-03-05T01:43:29.650Z,3.26
2023-03-05T01:46:39.086Z,3.25
2023-03-05T01:49:41.618Z,3.20
2023-03-05T01:52:49.358Z,3.22
2023-03-05T01:55:51.714Z,3.23
2023-03-05T01:58:57.972Z,3.20
2023-03-05T02:02:00.665Z,3.20
2023-03-05T02:05:07.877Z,3.25
2023-03-05T02:08:17.048Z,3.22
2023-03-05T02:11:27.646Z,3.30
2023-03-05T02:14:30.144Z,3.22
2023-03-05T02:17:35.440Z,3.22
2023-03-05T02:20:48.944Z,3.19
2023-03-05T02:23:51.201Z,3.16
2023-03-05T02:26:53.837Z,3.18
2023-03-05T02:29:56.098Z,3.09
2023-03-05T02:32:58.941Z,3.11
2023-03-05T02:36:02.316Z,3.11
2023-03-05T02:39:05.738Z,3.09
2023-03-05T02:42:09.229Z,3.01
2023-03-05T02:45:13.359Z,2.98
2023-03-05T02:48:15.680Z,2.87
2023-03-05T02:51:18.451Z,2.77
2023-03-05T02:54:22.112Z,2.74
2023-03-05T02:57:24.780Z,2.72
2023-03-05T03:00:28.187Z,2.66
2023-03-05T03:03:30.869Z,2.68
2023-03-05T03:06:33.281Z,2.70
2023-03-05T03:09:36.100Z,2.71
2023-03-05T03:12:42.643Z,2.65
2023-03-05T03:15:45.008Z,2.55
2023-03-05T03:18:48.979Z,2.58
2023-03-05T03:21:51.344Z,2.58
2023-03-05T03:24:53.626Z,2.50
2023-03-05T03:27:55.965Z,2.45
2023-03-05T03:30:58.183Z,2.44
2023-03-05T03:34:00.399Z,2.50
2023-03-05T03:37:02.722Z,2.51
2023-03-05T03:40:08.314Z,2.58
2023-03-05T03:43:10.635Z,2.48
2023-03-05T03:46:13.035Z,2.48
2023-03-05T03:49:22.272Z,2.40
2023-03-05T03:52:24.737Z,2.40
2023-03-05T03:55:27.034Z,2.40
2023-03-05T03:58:29.483Z,2.40
2023-03-05T04:01:31.696Z,2.24
2023-03-05T04:04:33.955Z,2.19
2023-03-05T04:07:36.180Z,2.13
2023-03-05T04:10:39.874Z,2.14
2023-03-05T04:13:42.218Z,2.06
2023-03-05T04:16:44.439Z,2.12
2023-03-05T04:19:46.754Z,2.05
2023-03-05T04:22:49.176Z,2.05
2023-03-05T04:25:51.427Z,2.00
2023-03-05T04:28:53.663Z,2.05
2023-03-05T04:31:55.942Z,2.03
2023-03-05T04:34:58.523Z,2.10
2023-03-05T04:38:00.940Z,2.13
2023-03-05T04:41:03.242Z,2.14
2023-03-05T04:44:05.701Z,2.14
2023-03-05T04:47:07.983Z,2.20
2023-03-05T04:50:11.758Z,2.12
2023-03-05T04:53:14.064Z,2.19
2023-03-05T04:56:16.808Z,2.14
2023-03-05T04:59:19.063Z,2.09
2023-03-05T05:02:21.256Z,2.06
2023-03-05T05:05:26.720Z,2.05
2023-03-05T05:08:29.404Z,2.03
2023-03-05T05:11:31.638Z,2.10
2023-03-05T05:14:34.478Z,2.13
2023-03-05T05:17:36.831Z,2.10
2023-03-05T05:20:39.097Z,2.09
2023-03-05T05:23:41.501Z,2.09
2023-03-05T05:26:43.734Z,2.16
2023-03-05T05:29:50.194Z,2.19
2023-03-05T05:32:52.442Z,2.29
2023-03-05T05:35:54.738Z,2.29
2023-03-05T05:38:57.043Z,2.40
2023-03-05T05:41:59.283Z,2.55
2023-03-05T05:45:03.121Z,2.75
2023-03-05T05:48:05.573Z,2.92
2023-03-05T05:51:14.985Z,3.42
2023-03-05T05:54:17.237Z,3.80
2023-03-05T05:57:19.432Z,4.24
2023-03-05T06:00:22.056Z,4.66
2023-03-05T06:03:24.470Z,4.89
2023-03-05T06:06:27.952Z,4.52
2023-03-05T06:09:30.245Z,4.49
2023-03-05T06:12:32.451Z,4.36
2023-03-05T06:15:34.653Z,4.31
2023-03-05T06:18:36.968Z,4.41
2023-03-05T06:21:39.388Z,4.22
2023-03-05T06:24:41.595Z,4.35
2023-03-05T06:27:43.876Z,4.83
2023-03-05T06:30:46.192Z,5.30
2023-03-05T06:33:49.209Z,5.61
2023-03-05T06:36:51.425Z,5.49
2023-03-05T06:39:53.634Z,5.52
2023-03-05T06:42:55.887Z,5.69
2023-03-05T06:46:05.355Z,5.65
2023-03-05T06:49:09.596Z,5.52
2023-03-05T06:52:12.880Z,6.37
2023-03-05T06:55:15.249Z,6.55
2023-03-05T06:58:17.474Z,6.51
2023-03-05T07:01:21.449Z,6.37
2023-03-05T07:04:24.509Z,6.53
2023-03-05T07:07:26.763Z,6.29
2023-03-05T07:10:28.997Z,6.07
2023-03-05T07:13:31.284Z,6.19
2023-03-05T07:16:34.926Z,6.19
2023-03-05T07:19:38.580Z,6.23
2023-03-05T07:22:40.830Z,6.26
2023-03-05T07:25:43.076Z,6.38
2023-03-05T07:28:45.401Z,6.47
2023-03-05T07:31:47.612Z,6.31
2023-03-05T07:34:49.800Z,6.41
2023-03-05T07:37:52.405Z,6.50
2023-03-05T07:40:54.644Z,6.61
2023-03-05T07:43:56.946Z,6.77
2023-03-05T07:46:59.177Z,6.89
2023-03-05T07:50:01.765Z,6.95
2023-03-05T07:53:04.011Z,6.99
2023-03-05T07:56:06.765Z,7.23
2023-03-05T07:59:11.731Z,7.49
2023-03-05T08:02:14.950Z,7.70
2023-03-05T08:05:17.531Z,8.16
2023-03-05T08:08:19.976Z,8.16
2023-03-05T08:11:22.273Z,8.31
2023-03-05T08:14:24.522Z,8.22
2023-03-05T08:17:26.754Z,8.12
2023-03-05T08:20:28.996Z,8.34
2023-03-05T08:23:31.748Z,8.44
2023-03-05T08:26:37.783Z,8.50
2023-03-05T08:29:40.209Z,8.25
2023-03-05T08:32:43.099Z,8.08
2023-03-05T08:35:45.746Z,8.09
2023-03-05T08:38:48.649Z,8.20
2023-03-05T08:41:50.899Z,8.22
2023-03-05T08:44:53.167Z,8.39
2023-03-05T08:47:57.317Z,8.62
2023-03-05T08:51:06.240Z,8.91
2023-03-05T08:54:09.332Z,8.77
2023-03-05T08:57:11.518Z,9.01
2023-03-05T09:00:14.220Z,9.14
2023-03-05T09:03:16.597Z,9.31
2023-03-05T09:06:19.021Z,9.72
2023-03-05T09:09:22.869Z,9.57
2023-03-05T09:12:25.125Z,9.65
2023-03-05T09:15:27.394Z,9.82
2023-03-05T09:18:30.720Z,9.14
2023-03-05T09:21:32.993Z,9.49
2023-03-05T09:24:35.300Z,9.78
2023-03-05T09:27:38.759Z,10.34
2023-03-05T09:30:41.181Z,10.77
2023-03-05T09:33:43.449Z,10.72
2023-03-05T09:36:45.689Z,10.85
2023-03-05T09:39:47.950Z,10.80
2023-03-05T09:43:00.872Z,11.07
2023-03-05T09:46:26.317Z,12.07
2023-03-05T09:49:51.270Z,12.75
2023-03-05T09:53:01.671Z,12.37
2023-03-05T09:56:11.446Z,13.02
2023-03-05T09:59:13.652Z,12.54
2023-03-05T10:02:24.507Z,13.64
2023-03-05T10:05:57.686Z,13.14
2023-03-05T10:09:05.558Z,13.74
2023-03-05T10:12:13.191Z,13.12
2023-03-05T10:15:20.156Z,13.32
2023-03-05T10:18:41.986Z,13.63
2023-03-05T10:22:08.930Z,14.02
2023-03-05T10:25:55.268Z,15.04
2023-03-05T10:29:22.175Z,14.87
2023-03-05T10:32:42.615Z,15.16
2023-03-05T10:36:03.360Z,15.01
2023-03-05T10:39:42.957Z,13.88
2023-03-05T10:43:07.605Z,13.67
2023-03-05T10:46:18.807Z,13.37
2023-03-05T10:49:29.112Z,13.34
2023-03-05T10:52:36.297Z,13.74
2023-03-05T10:55:38.490Z,13.61
2023-03-05T10:58:40.825Z,13.85
2023-03-05T11:02:02.780Z,13.14
2023-03-05T11:05:05.536Z,12.52
2023-03-05T11:08:23.036Z,12.13
2023-03-05T11:11:25.376Z,13.06
2023-03-05T11:14:33.554Z,13.40
2023-03-05T11:17:44.790Z,13.32
2023-03-05T11:20:47.587Z,13.63
2023-03-05T11:24:13.827Z,13.48
2023-03-05T11:27:31.675Z,13.64
2023-03-05T11:30:41.207Z,13.19
2023-03-05T11:34:05.464Z,12.71
2023-03-05T11:37:22.508Z,12.85
2023-03-05T11:40:27.355Z,12.58
2023-03-05T11:43:34.194Z,12.18
2023-03-05T11:47:21.339Z,12.32
2023-03-05T11:50:28.293Z,12.78
2023-03-05T11:53:36.899Z,13.63
2023-03-05T11:56:42.295Z,14.15
2023-03-05T11:59:44.809Z,14.16
2023-03-05T12:02:52.702Z,14.65
2023-03-05T12:05:59.644Z,14.52
2023-03-05T12:09:18.801Z,14.79
2023-03-05T12:12:54.751Z,14.97
2023-03-05T12:16:11.898Z,15.38
2023-03-05T12:19:14.185Z,15.03
2023-03-05T12:22:23.074Z,14.40
2023-03-05T12:25:28.202Z,15.17
2023-03-05T12:28:36.691Z,14.40
2023-03-05T12:31:39.561Z,14.08
2023-03-05T12:34:42.219Z,13.86
2023-03-05T12:37:57.405Z,12.93
2023-03-05T12:41:28.101Z,12.51
2023-03-05T12:44:30.472Z,12.08
2023-03-05T12:47:32.732Z,11.55
2023-03-05T12:50:37.703Z,11.14
2023-03-05T12:53:39.941Z,10.39
2023-03-05T12:56:47.200Z,10.17
2023-03-05T13:00:22.539Z,10.10
2023-03-05T13:03:30.926Z,9.89
2023-03-05T13:06:35.695Z,9.48
2023-03-05T13:09:37.940Z,9.71
2023-03-05T13:12:49.688Z,9.52
2023-03-05T13:15:52.764Z,9.65
2023-03-05T13:18:58.200Z,10.46
2023-03-05T13:22:10.772Z,11.36
2023-03-05T13:25:20.516Z,11.35
2023-03-05T13:28:22.951Z,11.65
2023-03-05T13:31:25.252Z,11.69
2023-03-05T13:34:46.753Z,11.76
2023-03-05T13:37:50.065Z,12.00
2023-03-05T13:41:25.597Z,12.58
2023-03-05T13:44:29.627Z,12.04
2023-03-05T13:47:34.659Z,11.90
2023-03-05T13:50:39.225Z,11.80
2023-03-05T13:53:41.750Z,11.63
2023-03-05T13:56:59.329Z,11.65
2023-03-05T14:00:01.639Z,11.19
2023-03-05T14:03:20.951Z,10.51
2023-03-05T14:06:27.212Z,10.17
2023-03-05T14:09:47.691Z,10.10
2023-03-05T14:12:51.049Z,9.93
2023-03-05T14:16:08.134Z,9.86
2023-03-05T14:19:34.831Z,9.69
2023-03-05T14:22:39.038Z,9.55
2023-03-05T14:25:41.355Z,9.58
2023-03-05T14:28:43.788Z,9.54
2023-03-05T14:31:50.399Z,9.24
2023-03-05T14:34:57.250Z,9.13
2023-03-05T14:38:00.450Z,9.13
2023-03-05T14:41:24.486Z,8.76
2023-03-05T14:44:26.690Z,8.80
2023-03-05T14:47:29.167Z,8.60
2023-03-05T14:50:43.123Z,8.56
2023-03-05T14:53:47.760Z,8.38
2023-03-05T14:56:50.192Z,8.42
2023-03-05T14:59:52.606Z,8.41
2023-03-05T15:02:55.101Z,8.26
2023-03-05T15:05:58.868Z,8.34
2023-03-05T15:09:02.215Z,8.22
2023-03-05T15:12:04.790Z,8.25
2023-03-05T15:15:09.099Z,8.35
2023-03-05T15:18:16.536Z,8.29
2023-03-05T15:21:18.755Z,8.34
2023-03-05T15:24:20.977Z,8.29
2023-03-05T15:27:23.206Z,8.21
2023-03-05T15:30:31.990Z,8.25
2023-03-05T15:33:34.525Z,8.25
2023-03-05T15:36:36.759Z,8.24
2023-03-05T15:39:38.959Z,8.39
2023-03-05T15:42:41.846Z,8.39
2023-03-05T15:45:44.163Z,8.31
2023-03-05T15:48:50.077Z,8.21
2023-03-05T15:51:52.596Z,8.16
2023-03-05T15:54:54.825Z,8.22
2023-03-05T15:57:57.066Z,8.07
2023-03-05T16:00:59.764Z,7.98
2023-03-05T16:04:02.633Z,8.01
2023-03-05T16:07:05.474Z,7.94
2023-03-05T16:10:13.776Z,7.90
2023-03-05T16:13:18.617Z,7.88
2023-03-05T16:16:24.240Z,7.74
2023-03-05T16:19:27.608Z,7.73
2023-03-05T16:22:30.613Z,7.74
2023-03-05T16:25:32.850Z,7.81
2023-03-05T16:28:35.084Z,7.78
2023-03-05T16:31:38.288Z,7.74
2023-03-05T16:34:40.575Z,7.81
2023-03-05T16:37:42.948Z,7.75
2023-03-05T16:41:06.783Z,7.67
2023-03-05T16:44:07.525Z,7.63
2023-03-05T16:47:12.264Z,7.56
2023-03-05T16:50:14.496Z,7.39
2023-03-05T16:53:16.759Z,7.25
2023-03-05T16:56:19.569Z,7.27
2023-03-05T16:59:23.798Z,7.25
2023-03-05T17:02:26.091Z,7.23
2023-03-05T17:05:29.888Z,7.30
2023-03-05T17:08:32.281Z,7.26
2023-03-05T17:11:34.622Z,7.26
2023-03-05T17:14:36.921Z,7.30
2023-03-05T17:17:40.669Z,7.29
2023-03-05T17:20:42.961Z,7.16
2023-03-05T17:23:45.259Z,7.08
2023-03-05T17:26:47.691Z,7.03
2023-03-05T17:29:49.965Z,7.09
2023-03-05T17:32:53.919Z,7.22
2023-03-05T17:35:56.731Z,7.09
2023-03-05T17:38:58.991Z,7.11
2023-03-05T17:42:01.466Z,7.16
2023-03-05T17:45:04.867Z,7.19
2023-03-05T17:48:08.540Z,7.05
2023-03-05T17:51:13.563Z,6.96
2023-03-05T17:54:15.826Z,6.91
2023-03-05T17:57:18.080Z,6.81
2023-03-05T18:00:22.843Z,6.78
2023-03-05T18:03:25.186Z,6.82
2023-03-05T18:06:27.861Z,6.70
2023-03-05T18:09:30.189Z,6.74
2023-03-05T18:12:32.782Z,6.61
2023-03-05T18:15:36.044Z,6.50
2023-03-05T18:18:38.299Z,6.41
2023-03-05T18:21:41.276Z,6.50
2023-03-05T18:24:43.661Z,6.45
2023-03-05T18:27:45.875Z,6.44
2023-03-05T18:30:48.195Z,6.47
2023-03-05T18:33:52.150Z,6.41
2023-03-05T18:36:54.362Z,6.53
2023-03-05T18:39:58.010Z,6.34
2023-03-05T18:43:01.548Z,6.29
2023-03-05T18:46:05.123Z,6.23
2023-03-05T18:49:09.524Z,6.29
2023-03-05T18:52:12.624Z,6.29
2023-03-05T18:55:20.794Z,6.43
2023-03-05T18:58:24.458Z,6.43
2023-03-05T19:01:27.958Z,6.44
2023-03-05T19:04:30.270Z,6.26
2023-03-05T19:07:35.152Z,6.33
2023-03-05T19:10:38.137Z,6.27
2023-03-05T19:13:43.796Z,6.21
2023-03-05T19:16:46.101Z,6.05
2023-03-05T19:19:52.889Z,5.82
2023-03-05T19:22:55.804Z,5.88
2023-03-05T19:25:58.130Z,5.93
2023-03-05T19:29:02.047Z,5.89
2023-03-05T19:32:05.290Z,5.99
2023-03-05T19:35:07.997Z,6.13
2023-03-05T19:38:10.178Z,6.13
2023-03-05T19:41:13.227Z,6.05
2023-03-05T19:44:15.646Z,5.99
2023-03-05T19:47:17.938Z,5.92
2023-03-05T19:50:20.255Z,5.93
2023-03-05T19:53:23.162Z,5.90
2023-03-05T19:56:25.789Z,6.02
2023-03-05T19:59:28.074Z,5.88
2023-03-05T20:02:30.305Z,5.71
2023-03-05T20:05:32.573Z,5.76
2023-03-05T20:08:35.244Z,5.73
2023-03-05T20:11:37.716Z,5.68
2023-03-05T20:14:40.109Z,5.54
2023-03-05T20:17:45.776Z,5.48
2023-03-05T20:20:57.406Z,5.47
2023-03-05T20:24:04.167Z,5.44
2023-03-05T20:27:06.500Z,5.72
2023-03-05T20:30:12.131Z,5.76
2023-03-05T20:33:14.311Z,5.73
2023-03-05T20:36:16.901Z,5.80
2023-03-05T20:39:19.228Z,5.85
2023-03-05T20:42:21.861Z,5.95
2023-03-05T20:45:24.158Z,5.72
2023-03-05T20:48:28.777Z,5.68
2023-03-05T20:51:35.111Z,5.69
2023-03-05T20:54:37.389Z,5.71
2023-03-05T20:57:39.772Z,5.68
2023-03-05T21:00:42.403Z,5.76
2023-03-05T21:03:44.792Z,5.71
2023-03-05T21:06:52.471Z,5.69
2023-03-05T21:09:54.709Z,5.65
2023-03-05T21:12:58.485Z,5.45
2023-03-05T21:16:09.988Z,5.45
2023-03-05T21:19:12.377Z,5.37
2023-03-05T21:22:14.643Z,5.11
2023-03-05T21:25:21.987Z,5.24
2023-03-05T21:28:24.819Z,5.11
2023-03-05T21:31:27.076Z,5.18
2023-03-05T21:34:29.295Z,4.96
2023-03-05T21:37:31.551Z,4.77
2023-03-05T21:40:37.221Z,4.73
2023-03-05T21:43:39.992Z,4.80
2023-03-05T21:46:43.657Z,4.77
2023-03-05T21:49:45.897Z,4.70
2023-03-05T21:52:48.364Z,4.93
2023-03-05T21:56:15.651Z,4.87
2023-03-05T21:59:23.955Z,4.81
2023-03-05T22:02:26.377Z,4.90
2023-03-05T22:05:28.616Z,4.69
2023-03-05T22:08:32.051Z,4.69
2023-03-05T22:11:42.733Z,4.63
2023-03-05T22:14:44.943Z,4.63
2023-03-05T22:17:47.218Z,4.58
2023-03-05T22:20:50.141Z,4.60
2023-03-05T22:23:54.331Z,4.65
2023-03-05T22:26:56.601Z,4.76
2023-03-05T22:29:58.838Z,4.77
2023-03-05T22:33:01.994Z,4.83
2023-03-05T22:36:09.356Z,4.83
2023-03-05T22:39:11.562Z,4.79
2023-03-05T22:42:13.793Z,4.79
2023-03-05T22:45:18.333Z,4.80
2023-03-05T22:48:20.522Z,4.81
2023-03-05T22:51:22.802Z,4.80
2023-03-05T22:54:25.046Z,4.83
2023-03-05T22:57:27.246Z,4.80
2023-03-05T23:00:29.492Z,4.80
2023-03-05T23:03:31.769Z,4.80
2023-03-05T23:06:34.005Z,4.83
2023-03-05T23:09:36.348Z,4.83
2023-03-05T23:12:44.181Z,4.77
2023-03-05T23:15:46.503Z,4.81
2023-03-05T23:18:48.789Z,4.77
2023-03-05T23:21:51.138Z,4.76
2023-03-05T23:24:53.356Z,4.76
2023-03-05T23:27:58.113Z,4.69
2023-03-05T23:31:00.516Z,4.69
2023-03-05T23:34:02.858Z,4.79
2023-03-05T23:37:05.117Z,4.93
2023-03-05T23:40:15.409Z,4.90
2023-03-05T23:43:24.581Z,4.84
2023-03-05T23:46:26.916Z,4.76
2023-03-05T23:49:29.269Z,4.83
2023-03-05T23:52:31.662Z,4.89
2023-03-05T23:55:42.651Z,4.67
2023-03-05T23:58:44.898Z,4.62
